sensor_id;sensor_type;location;lat;lon;timestamp;temperature;humidity
22185;DHT22;11258;52.516;13.318;2023-06-19T00:00:09;21.10;99.90
22185;DHT22;11258;52.516;13.318;2023-06-19T00:02:40;21.00;99.90
22185;DHT22;11258;52.516;13.318;2023-06-19T00:05:07;21.00;99.90
22185;DHT22;11258;52.516;13.318;2023-06-19T00:07:34;21.00;99.90
22185;DHT22;11258;52.516;13.318;2023-06-19T00:10:00;20.90;99.90
22185;DHT22;11258;52.516;13.318;2023-06-19T00:12:25;20.90;99.90
22185;DHT22;11258;52.516;13.318;2023-06-19T00:14:51;20.90;99.90
22185;DHT22;11258;52.516;13.318;2023-06-19T00:17:16;20.90;99.90
22185;DHT22;11258;52.516;13.318;2023-06-19T00:19:43;21.00;99.90
22185;DHT22;11258;52.516;13.318;2023-06-19T00:22:08;20.90;99.90
22185;DHT22;11258;52.516;13.318;2023-06-19T00:24:34;20.90;99.90
22185;DHT22;11258;52.516;13.318;2023-06-19T00:27:00;20.90;99.90
22185;DHT22;11258;52.516;13.318;2023-06-19T00:29:32;20.80;99.90
22185;DHT22;11258;52.516;13.318;2023-06-19T00:31:59;20.80;99.90
22185;DHT22;11258;52.516;13.318;2023-06-19T00:34:25;20.80;99.90
22185;DHT22;11258;52.516;13.318;2023-06-19T00:36:51;20.80;99.90
22185;DHT22;11258;52.516;13.318;2023-06-19T00:39:24;20.80;99.90
22185;DHT22;11258;52.516;13.318;2023-06-19T00:41:54;20.90;99.90
22185;DHT22;11258;52.516;13.318;2023-06-19T00:44:20;20.90;99.90
22185;DHT22;11258;52.516;13.318;2023-06-19T00:46:46;20.90;99.90
22185;DHT22;11258;52.516;13.318;2023-06-19T00:49:13;20.90;99.90
22185;DHT22;11258;52.516;13.318;2023-06-19T00:51:39;20.80;99.90
22185;DHT22;11258;52.516;13.318;2023-06-19T00:54:05;20.80;99.90
22185;DHT22;11258;52.516;13.318;2023-06-19T00:56:32;20.80;99.90
22185;DHT22;11258;52.516;13.318;2023-06-19T00:58:59;20.70;99.90
22185;DHT22;11258;52.516;13.318;2023-06-19T01:01:26;20.70;99.90
22185;DHT22;11258;52.516;13.318;2023-06-19T01:03:52;20.70;99.90
22185;DHT22;11258;52.516;13.318;2023-06-19T01:06:25;20.70;99.90
22185;DHT22;11258;52.516;13.318;2023-06-19T01:09:02;20.70;99.90
22185;DHT22;11258;52.516;13.318;2023-06-19T01:11:36;20.70;99.90
22185;DHT22;11258;52.516;13.318;2023-06-19T01:14:14;20.70;99.90
22185;DHT22;11258;52.516;13.318;2023-06-19T01:16:41;20.60;99.90
22185;DHT22;11258;52.516;13.318;2023-06-19T01:19:10;20.50;99.90
22185;DHT22;11258;52.516;13.318;2023-06-19T01:21:38;20.40;99.90
22185;DHT22;11258;52.516;13.318;2023-06-19T01:24:04;20.40;99.90
22185;DHT22;11258;52.516;13.318;2023-06-19T01:26:30;20.30;99.90
22185;DHT22;11258;52.516;13.318;2023-06-19T01:28:56;20.40;99.90
22185;DHT22;11258;52.516;13.318;2023-06-19T01:31:26;20.50;99.90
22185;DHT22;11258;52.516;13.318;2023-06-19T01:33:55;20.50;99.90
22185;DHT22;11258;52.516;13.318;2023-06-19T01:36:22;20.40;99.90
22185;DHT22;11258;52.516;13.318;2023-06-19T01:38:49;20.50;99.90
22185;DHT22;11258;52.516;13.318;2023-06-19T01:41:16;20.40;99.90
22185;DHT22;11258;52.516;13.318;2023-06-19T01:43:43;20.30;99.90
22185;DHT22;11258;52.516;13.318;2023-06-19T01:46:09;20.30;99.90
22185;DHT22;11258;52.516;13.318;2023-06-19T01:48:37;20.20;99.90
22185;DHT22;11258;52.516;13.318;2023-06-19T01:51:03;20.20;99.90
22185;DHT22;11258;52.516;13.318;2023-06-19T01:53:30;20.30;99.90
22185;DHT22;11258;52.516;13.318;2023-06-19T01:55:57;20.20;99.90
22185;DHT22;11258;52.516;13.318;2023-06-19T01:58:23;20.20;99.90
22185;DHT22;11258;52.516;13.318;2023-06-19T02:00:49;20.10;99.90
22185;DHT22;11258;52.516;13.318;2023-06-19T02:03:14;20.20;99.90
22185;DHT22;11258;52.516;13.318;2023-06-19T02:05:40;20.20;99.90
22185;DHT22;11258;52.516;13.318;2023-06-19T02:08:05;20.20;99.90
22185;DHT22;11258;52.516;13.318;2023-06-19T02:10:32;20.10;99.90
22185;DHT22;11258;52.516;13.318;2023-06-19T02:12:57;20.10;99.90
22185;DHT22;11258;52.516;13.318;2023-06-19T02:15:23;20.10;99.90
22185;DHT22;11258;52.516;13.318;2023-06-19T02:17:49;20.10;99.90
22185;DHT22;11258;52.516;13.318;2023-06-19T02:20:21;20.10;99.90
22185;DHT22;11258;52.516;13.318;2023-06-19T02:22:47;20.10;99.90
22185;DHT22;11258;52.516;13.318;2023-06-19T02:25:12;20.10;99.90
22185;DHT22;11258;52.516;13.318;2023-06-19T02:27:38;20.20;99.90
22185;DHT22;11258;52.516;13.318;2023-06-19T02:30:05;20.30;99.90
22185;DHT22;11258;52.516;13.318;2023-06-19T02:32:30;20.20;99.90
22185;DHT22;11258;52.516;13.318;2023-06-19T02:34:57;20.30;99.90
22185;DHT22;11258;52.516;13.318;2023-06-19T02:37:22;20.20;99.90
22185;DHT22;11258;52.516;13.318;2023-06-19T02:39:48;20.20;99.90
22185;DHT22;11258;52.516;13.318;2023-06-19T02:42:13;20.30;99.90
22185;DHT22;11258;52.516;13.318;2023-06-19T02:44:39;20.40;99.90
22185;DHT22;11258;52.516;13.318;2023-06-19T02:47:06;20.40;99.90
22185;DHT22;11258;52.516;13.318;2023-06-19T02:49:32;20.50;99.90
22185;DHT22;11258;52.516;13.318;2023-06-19T02:51:57;20.40;99.90
22185;DHT22;11258;52.516;13.318;2023-06-19T02:54:23;20.40;99.90
22185;DHT22;11258;52.516;13.318;2023-06-19T02:56:48;20.40;99.90
22185;DHT22;11258;52.516;13.318;2023-06-19T02:59:14;20.40;99.90
22185;DHT22;11258;52.516;13.318;2023-06-19T03:01:39;20.50;99.90
22185;DHT22;11258;52.516;13.318;2023-06-19T03:04:05;20.30;99.90
22185;DHT22;11258;52.516;13.318;2023-06-19T03:06:31;20.20;99.90
22185;DHT22;11258;52.516;13.318;2023-06-19T03:08:58;20.20;99.90
22185;DHT22;11258;52.516;13.318;2023-06-19T03:11:24;20.20;99.90
22185;DHT22;11258;52.516;13.318;2023-06-19T03:13:51;20.30;99.90
22185;DHT22;11258;52.516;13.318;2023-06-19T03:16:18;20.40;99.90
22185;DHT22;11258;52.516;13.318;2023-06-19T03:18:44;20.30;99.90
22185;DHT22;11258;52.516;13.318;2023-06-19T03:21:13;20.50;99.90
22185;DHT22;11258;52.516;13.318;2023-06-19T03:23:39;20.50;99.90
22185;DHT22;11258;52.516;13.318;2023-06-19T03:26:07;21.00;99.90
22185;DHT22;11258;52.516;13.318;2023-06-19T03:28:33;22.10;99.90
22185;DHT22;11258;52.516;13.318;2023-06-19T03:30:59;22.80;99.90
22185;DHT22;11258;52.516;13.318;2023-06-19T03:33:26;23.00;99.90
22185;DHT22;11258;52.516;13.318;2023-06-19T03:35:51;23.40;99.90
22185;DHT22;11258;52.516;13.318;2023-06-19T03:38:17;22.90;99.90
22185;DHT22;11258;52.516;13.318;2023-06-19T03:40:43;22.60;99.90
22185;DHT22;11258;52.516;13.318;2023-06-19T03:43:08;22.30;99.90
22185;DHT22;11258;52.516;13.318;2023-06-19T03:45:34;22.00;99.90
22185;DHT22;11258;52.516;13.318;2023-06-19T03:47:59;22.10;99.90
22185;DHT22;11258;52.516;13.318;2023-06-19T03:50:25;22.90;99.90
22185;DHT22;11258;52.516;13.318;2023-06-19T03:52:51;22.70;99.90
22185;DHT22;11258;52.516;13.318;2023-06-19T03:55:17;22.40;99.90
22185;DHT22;11258;52.516;13.318;2023-06-19T03:57:42;22.20;99.90
22185;DHT22;11258;52.516;13.318;2023-06-19T04:00:08;22.00;99.90
22185;DHT22;11258;52.516;13.318;2023-06-19T04:02:36;21.60;99.90
22185;DHT22;11258;52.516;13.318;2023-06-19T04:05:02;21.30;99.90
22185;DHT22;11258;52.516;13.318;2023-06-19T04:07:28;21.30;99.90
22185;DHT22;11258;52.516;13.318;2023-06-19T04:09:54;21.30;99.90
22185;DHT22;11258;52.516;13.318;2023-06-19T04:12:20;21.20;99.90
22185;DHT22;11258;52.516;13.318;2023-06-19T04:14:45;20.90;99.90
22185;DHT22;11258;52.516;13.318;2023-06-19T04:17:11;21.00;99.90
22185;DHT22;11258;52.516;13.318;2023-06-19T04:19:37;20.90;99.90
22185;DHT22;11258;52.516;13.318;2023-06-19T04:22:03;20.80;99.90
22185;DHT22;11258;52.516;13.318;2023-06-19T04:24:28;20.70;99.90
22185;DHT22;11258;52.516;13.318;2023-06-19T04:26:54;20.70;99.90
22185;DHT22;11258;52.516;13.318;2023-06-19T04:29:19;20.70;99.90
22185;DHT22;11258;52.516;13.318;2023-06-19T04:31:45;20.80;99.90
22185;DHT22;11258;52.516;13.318;2023-06-19T04:34:16;20.80;99.90
22185;DHT22;11258;52.516;13.318;2023-06-19T04:36:42;20.90;99.90
22185;DHT22;11258;52.516;13.318;2023-06-19T04:39:08;20.70;99.90
22185;DHT22;11258;52.516;13.318;2023-06-19T04:41:35;20.80;99.90
22185;DHT22;11258;52.516;13.318;2023-06-19T04:44:04;20.70;99.90
22185;DHT22;11258;52.516;13.318;2023-06-19T04:46:30;20.80;99.90
22185;DHT22;11258;52.516;13.318;2023-06-19T04:48:56;20.70;99.90
22185;DHT22;11258;52.516;13.318;2023-06-19T04:51:21;20.60;99.90
22185;DHT22;11258;52.516;13.318;2023-06-19T04:53:47;20.60;99.90
22185;DHT22;11258;52.516;13.318;2023-06-19T04:56:14;20.70;99.90
22185;DHT22;11258;52.516;13.318;2023-06-19T04:58:40;20.80;99.90
22185;DHT22;11258;52.516;13.318;2023-06-19T05:01:14;20.70;99.90
22185;DHT22;11258;52.516;13.318;2023-06-19T05:03:40;20.70;99.90
22185;DHT22;11258;52.516;13.318;2023-06-19T05:06:07;20.60;99.90
22185;DHT22;11258;52.516;13.318;2023-06-19T05:08:32;20.60;99.90
22185;DHT22;11258;52.516;13.318;2023-06-19T05:10:58;20.60;99.90
22185;DHT22;11258;52.516;13.318;2023-06-19T05:13:24;20.60;99.90
22185;DHT22;11258;52.516;13.318;2023-06-19T05:15:50;20.70;99.90
22185;DHT22;11258;52.516;13.318;2023-06-19T05:18:16;20.80;99.90
22185;DHT22;11258;52.516;13.318;2023-06-19T05:20:43;20.70;99.90
22185;DHT22;11258;52.516;13.318;2023-06-19T05:23:08;20.70;99.90
22185;DHT22;11258;52.516;13.318;2023-06-19T05:25:34;20.90;99.90
22185;DHT22;11258;52.516;13.318;2023-06-19T05:28:00;20.90;99.90
22185;DHT22;11258;52.516;13.318;2023-06-19T05:30:25;20.90;99.90
22185;DHT22;11258;52.516;13.318;2023-06-19T05:32:51;21.10;99.90
22185;DHT22;11258;52.516;13.318;2023-06-19T05:35:17;21.10;99.90
22185;DHT22;11258;52.516;13.318;2023-06-19T05:37:43;21.10;99.90
22185;DHT22;11258;52.516;13.318;2023-06-19T05:40:09;21.30;99.90
22185;DHT22;11258;52.516;13.318;2023-06-19T05:42:36;21.20;99.90
22185;DHT22;11258;52.516;13.318;2023-06-19T05:45:02;21.00;99.90
22185;DHT22;11258;52.516;13.318;2023-06-19T05:47:28;21.20;99.90
22185;DHT22;11258;52.516;13.318;2023-06-19T05:49:58;21.10;99.90
22185;DHT22;11258;52.516;13.318;2023-06-19T05:52:24;21.10;99.90
22185;DHT22;11258;52.516;13.318;2023-06-19T05:54:50;21.00;99.90
22185;DHT22;11258;52.516;13.318;2023-06-19T05:57:16;21.00;99.90
22185;DHT22;11258;52.516;13.318;2023-06-19T05:59:52;20.90;99.90
22185;DHT22;11258;52.516;13.318;2023-06-19T06:02:19;20.90;99.90
22185;DHT22;11258;52.516;13.318;2023-06-19T06:04:45;20.80;99.90
22185;DHT22;11258;52.516;13.318;2023-06-19T06:07:11;20.70;99.90
22185;DHT22;11258;52.516;13.318;2023-06-19T06:09:36;20.90;99.90
22185;DHT22;11258;52.516;13.318;2023-06-19T06:12:02;21.00;99.90
22185;DHT22;11258;52.516;13.318;2023-06-19T06:14:28;21.10;99.90
22185;DHT22;11258;52.516;13.318;2023-06-19T06:16:54;21.20;99.90
22185;DHT22;11258;52.516;13.318;2023-06-19T06:19:20;21.20;99.90
22185;DHT22;11258;52.516;13.318;2023-06-19T06:21:46;21.30;99.90
22185;DHT22;11258;52.516;13.318;2023-06-19T06:24:12;21.30;99.90
22185;DHT22;11258;52.516;13.318;2023-06-19T06:26:37;21.40;99.90
22185;DHT22;11258;52.516;13.318;2023-06-19T06:29:03;21.30;99.90
22185;DHT22;11258;52.516;13.318;2023-06-19T06:31:29;21.40;99.90
22185;DHT22;11258;52.516;13.318;2023-06-19T06:33:54;21.40;99.90
22185;DHT22;11258;52.516;13.318;2023-06-19T06:36:20;21.50;99.90
22185;DHT22;11258;52.516;13.318;2023-06-19T06:38:46;21.50;99.90
22185;DHT22;11258;52.516;13.318;2023-06-19T06:41:11;21.60;99.90
22185;DHT22;11258;52.516;13.318;2023-06-19T06:43:37;21.70;99.90
22185;DHT22;11258;52.516;13.318;2023-06-19T06:46:04;21.70;99.90
22185;DHT22;11258;52.516;13.318;2023-06-19T06:48:29;21.80;99.90
22185;DHT22;11258;52.516;13.318;2023-06-19T06:50:56;22.00;99.90
22185;DHT22;11258;52.516;13.318;2023-06-19T06:53:26;22.10;99.90
22185;DHT22;11258;52.516;13.318;2023-06-19T06:55:53;22.20;99.90
22185;DHT22;11258;52.516;13.318;2023-06-19T06:58:19;22.50;99.90
22185;DHT22;11258;52.516;13.318;2023-06-19T07:00:45;22.40;99.90
22185;DHT22;11258;52.516;13.318;2023-06-19T07:03:11;22.40;99.90
22185;DHT22;11258;52.516;13.318;2023-06-19T07:05:36;22.60;99.90
22185;DHT22;11258;52.516;13.318;2023-06-19T07:08:02;22.50;99.90
22185;DHT22;11258;52.516;13.318;2023-06-19T07:10:29;22.40;99.90
22185;DHT22;11258;52.516;13.318;2023-06-19T07:12:55;22.50;99.90
22185;DHT22;11258;52.516;13.318;2023-06-19T07:15:21;22.50;99.90
22185;DHT22;11258;52.516;13.318;2023-06-19T07:17:47;22.40;99.90
22185;DHT22;11258;52.516;13.318;2023-06-19T07:20:13;22.50;99.90
22185;DHT22;11258;52.516;13.318;2023-06-19T07:22:40;22.60;99.90
22185;DHT22;11258;52.516;13.318;2023-06-19T07:25:06;22.70;99.90
22185;DHT22;11258;52.516;13.318;2023-06-19T07:27:32;22.80;99.90
22185;DHT22;11258;52.516;13.318;2023-06-19T07:29:58;23.00;99.90
22185;DHT22;11258;52.516;13.318;2023-06-19T07:32:23;23.20;99.90
22185;DHT22;11258;52.516;13.318;2023-06-19T07:34:49;23.40;99.90
22185;DHT22;11258;52.516;13.318;2023-06-19T07:37:15;23.40;99.90
22185;DHT22;11258;52.516;13.318;2023-06-19T07:39:44;23.10;99.90
22185;DHT22;11258;52.516;13.318;2023-06-19T07:42:10;23.10;99.90
22185;DHT22;11258;52.516;13.318;2023-06-19T07:44:36;23.30;99.90
22185;DHT22;11258;52.516;13.318;2023-06-19T07:47:01;23.60;99.90
22185;DHT22;11258;52.516;13.318;2023-06-19T07:49:27;23.60;99.90
22185;DHT22;11258;52.516;13.318;2023-06-19T07:51:53;23.60;99.90
22185;DHT22;11258;52.516;13.318;2023-06-19T07:54:18;23.70;99.90
22185;DHT22;11258;52.516;13.318;2023-06-19T07:56:44;23.70;99.90
22185;DHT22;11258;52.516;13.318;2023-06-19T07:59:10;24.00;99.90
22185;DHT22;11258;52.516;13.318;2023-06-19T08:01:36;24.20;99.90
22185;DHT22;11258;52.516;13.318;2023-06-19T08:04:02;24.10;99.90
22185;DHT22;11258;52.516;13.318;2023-06-19T08:06:27;24.10;99.90
22185;DHT22;11258;52.516;13.318;2023-06-19T08:08:53;24.20;99.90
22185;DHT22;11258;52.516;13.318;2023-06-19T08:11:18;24.20;99.90
22185;DHT22;11258;52.516;13.318;2023-06-19T08:13:44;23.90;99.90
22185;DHT22;11258;52.516;13.318;2023-06-19T08:16:10;23.90;99.90
22185;DHT22;11258;52.516;13.318;2023-06-19T08:18:36;23.80;99.90
22185;DHT22;11258;52.516;13.318;2023-06-19T08:21:02;23.70;99.90
22185;DHT22;11258;52.516;13.318;2023-06-19T08:23:27;23.80;99.90
22185;DHT22;11258;52.516;13.318;2023-06-19T08:25:53;23.90;99.90
22185;DHT22;11258;52.516;13.318;2023-06-19T08:28:18;24.10;99.90
22185;DHT22;11258;52.516;13.318;2023-06-19T08:30:45;24.10;99.90
22185;DHT22;11258;52.516;13.318;2023-06-19T08:33:12;23.90;99.90
22185;DHT22;11258;52.516;13.318;2023-06-19T08:35:38;24.00;99.90
22185;DHT22;11258;52.516;13.318;2023-06-19T08:38:04;23.90;99.90
22185;DHT22;11258;52.516;13.318;2023-06-19T08:40:29;23.90;99.90
22185;DHT22;11258;52.516;13.318;2023-06-19T08:42:56;23.90;99.90
22185;DHT22;11258;52.516;13.318;2023-06-19T08:45:21;23.90;99.90
22185;DHT22;11258;52.516;13.318;2023-06-19T08:47:48;24.00;99.90
22185;DHT22;11258;52.516;13.318;2023-06-19T08:50:17;24.00;99.90
22185;DHT22;11258;52.516;13.318;2023-06-19T08:52:43;24.00;99.90
22185;DHT22;11258;52.516;13.318;2023-06-19T08:55:08;23.80;99.90
22185;DHT22;11258;52.516;13.318;2023-06-19T08:57:38;23.80;99.90
22185;DHT22;11258;52.516;13.318;2023-06-19T09:00:05;23.90;99.90
22185;DHT22;11258;52.516;13.318;2023-06-19T09:02:44;23.90;99.90
22185;DHT22;11258;52.516;13.318;2023-06-19T09:05:17;24.10;99.90
22185;DHT22;11258;52.516;13.318;2023-06-19T09:07:44;24.40;99.90
22185;DHT22;11258;52.516;13.318;2023-06-19T09:10:19;24.40;99.90
22185;DHT22;11258;52.516;13.318;2023-06-19T09:12:56;24.30;99.90
22185;DHT22;11258;52.516;13.318;2023-06-19T09:15:22;24.50;99.90
22185;DHT22;11258;52.516;13.318;2023-06-19T09:18:03;24.60;99.90
22185;DHT22;11258;52.516;13.318;2023-06-19T09:20:29;24.70;99.90
22185;DHT22;11258;52.516;13.318;2023-06-19T09:22:55;24.80;99.90
22185;DHT22;11258;52.516;13.318;2023-06-19T09:25:21;24.90;99.90
22185;DHT22;11258;52.516;13.318;2023-06-19T09:27:49;24.90;99.90
22185;DHT22;11258;52.516;13.318;2023-06-19T09:30:18;24.80;99.90
22185;DHT22;11258;52.516;13.318;2023-06-19T09:32:43;24.80;99.90
22185;DHT22;11258;52.516;13.318;2023-06-19T09:35:09;24.90;99.90
22185;DHT22;11258;52.516;13.318;2023-06-19T09:37:35;24.70;99.90
22185;DHT22;11258;52.516;13.318;2023-06-19T09:40:04;24.60;99.90
22185;DHT22;11258;52.516;13.318;2023-06-19T09:42:43;24.60;99.90
22185;DHT22;11258;52.516;13.318;2023-06-19T09:45:11;24.70;99.90
22185;DHT22;11258;52.516;13.318;2023-06-19T09:47:45;24.70;99.90
22185;DHT22;11258;52.516;13.318;2023-06-19T09:50:15;24.90;99.90
22185;DHT22;11258;52.516;13.318;2023-06-19T09:52:42;25.00;99.90
22185;DHT22;11258;52.516;13.318;2023-06-19T09:55:08;24.80;99.90
22185;DHT22;11258;52.516;13.318;2023-06-19T09:57:35;24.90;99.90
22185;DHT22;11258;52.516;13.318;2023-06-19T10:00:05;25.10;99.90
22185;DHT22;11258;52.516;13.318;2023-06-19T10:02:44;25.00;99.90
22185;DHT22;11258;52.516;13.318;2023-06-19T10:05:10;25.00;99.90
22185;DHT22;11258;52.516;13.318;2023-06-19T10:07:42;25.00;99.90
22185;DHT22;11258;52.516;13.318;2023-06-19T10:10:10;25.00;99.90
22185;DHT22;11258;52.516;13.318;2023-06-19T10:12:42;25.10;99.90
22185;DHT22;11258;52.516;13.318;2023-06-19T10:17:35;25.00;99.90
22185;DHT22;11258;52.516;13.318;2023-06-19T10:20:01;25.30;99.90
22185;DHT22;11258;52.516;13.318;2023-06-19T10:22:31;25.40;99.90
22185;DHT22;11258;52.516;13.318;2023-06-19T10:24:56;25.40;99.90
22185;DHT22;11258;52.516;13.318;2023-06-19T10:27:23;25.40;99.90
22185;DHT22;11258;52.516;13.318;2023-06-19T10:29:54;25.50;99.90
22185;DHT22;11258;52.516;13.318;2023-06-19T10:32:20;25.20;99.90
22185;DHT22;11258;52.516;13.318;2023-06-19T10:34:47;25.20;99.90
22185;DHT22;11258;52.516;13.318;2023-06-19T10:37:16;25.30;99.90
22185;DHT22;11258;52.516;13.318;2023-06-19T10:39:43;25.30;99.90
22185;DHT22;11258;52.516;13.318;2023-06-19T10:42:09;25.20;99.90
22185;DHT22;11258;52.516;13.318;2023-06-19T10:44:36;25.20;99.90
22185;DHT22;11258;52.516;13.318;2023-06-19T10:47:05;25.40;99.90
22185;DHT22;11258;52.516;13.318;2023-06-19T10:49:32;25.50;99.90
22185;DHT22;11258;52.516;13.318;2023-06-19T10:51:59;25.50;99.90
22185;DHT22;11258;52.516;13.318;2023-06-19T10:54:27;25.50;99.90
22185;DHT22;11258;52.516;13.318;2023-06-19T10:56:53;25.60;99.90
22185;DHT22;11258;52.516;13.318;2023-06-19T10:59:20;25.70;99.90
22185;DHT22;11258;52.516;13.318;2023-06-19T11:01:47;25.60;99.90
22185;DHT22;11258;52.516;13.318;2023-06-19T11:04:13;25.30;99.90
22185;DHT22;11258;52.516;13.318;2023-06-19T11:06:41;25.30;99.90
22185;DHT22;11258;52.516;13.318;2023-06-19T11:09:08;25.40;99.90
22185;DHT22;11258;52.516;13.318;2023-06-19T11:11:46;25.20;99.90
22185;DHT22;11258;52.516;13.318;2023-06-19T11:14:14;25.50;99.90
22185;DHT22;11258;52.516;13.318;2023-06-19T11:16:43;25.80;99.90
22185;DHT22;11258;52.516;13.318;2023-06-19T11:19:20;26.00;99.90
22185;DHT22;11258;52.516;13.318;2023-06-19T11:21:52;26.10;99.90
22185;DHT22;11258;52.516;13.318;2023-06-19T11:24:19;26.10;99.90
22185;DHT22;11258;52.516;13.318;2023-06-19T11:26:47;26.20;99.90
22185;DHT22;11258;52.516;13.318;2023-06-19T11:29:23;26.10;99.90
22185;DHT22;11258;52.516;13.318;2023-06-19T11:31:51;26.10;99.90
22185;DHT22;11258;52.516;13.318;2023-06-19T11:34:19;26.20;99.90
22185;DHT22;11258;52.516;13.318;2023-06-19T11:36:45;26.20;99.90
22185;DHT22;11258;52.516;13.318;2023-06-19T11:39:12;26.40;99.90
22185;DHT22;11258;52.516;13.318;2023-06-19T11:41:41;26.70;99.90
22185;DHT22;11258;52.516;13.318;2023-06-19T11:44:08;26.80;99.90
22185;DHT22;11258;52.516;13.318;2023-06-19T11:46:37;26.70;99.90
22185;DHT22;11258;52.516;13.318;2023-06-19T11:49:13;26.70;99.90
22185;DHT22;11258;52.516;13.318;2023-06-19T11:51:40;26.90;99.90
22185;DHT22;11258;52.516;13.318;2023-06-19T11:54:07;26.50;99.90
22185;DHT22;11258;52.516;13.318;2023-06-19T11:56:40;26.90;99.90
22185;DHT22;11258;52.516;13.318;2023-06-19T11:59:06;27.00;99.90
22185;DHT22;11258;52.516;13.318;2023-06-19T12:01:33;27.30;99.90
22185;DHT22;11258;52.516;13.318;2023-06-19T12:03:59;27.50;99.90
22185;DHT22;11258;52.516;13.318;2023-06-19T12:06:26;27.40;99.90
22185;DHT22;11258;52.516;13.318;2023-06-19T12:08:52;27.30;99.90
22185;DHT22;11258;52.516;13.318;2023-06-19T12:11:18;27.40;99.90
22185;DHT22;11258;52.516;13.318;2023-06-19T12:13:43;27.30;99.90
22185;DHT22;11258;52.516;13.318;2023-06-19T12:16:13;27.40;99.90
22185;DHT22;11258;52.516;13.318;2023-06-19T12:18:39;27.20;99.90
22185;DHT22;11258;52.516;13.318;2023-06-19T12:21:05;27.20;99.90
22185;DHT22;11258;52.516;13.318;2023-06-19T12:23:30;27.50;99.90
22185;DHT22;11258;52.516;13.318;2023-06-19T12:25:56;27.50;99.90
22185;DHT22;11258;52.516;13.318;2023-06-19T12:28:23;27.70;99.90
22185;DHT22;11258;52.516;13.318;2023-06-19T12:30:49;27.90;99.90
22185;DHT22;11258;52.516;13.318;2023-06-19T12:33:20;27.60;99.90
22185;DHT22;11258;52.516;13.318;2023-06-19T12:35:47;27.60;99.90
22185;DHT22;11258;52.516;13.318;2023-06-19T12:38:13;27.60;99.90
22185;DHT22;11258;52.516;13.318;2023-06-19T12:40:39;27.60;99.90
22185;DHT22;11258;52.516;13.318;2023-06-19T12:43:05;27.40;99.90
22185;DHT22;11258;52.516;13.318;2023-06-19T12:45:30;27.40;99.90
22185;DHT22;11258;52.516;13.318;2023-06-19T12:47:56;27.40;99.90
22185;DHT22;11258;52.516;13.318;2023-06-19T12:50:22;27.50;99.90
22185;DHT22;11258;52.516;13.318;2023-06-19T12:52:48;27.50;99.90
22185;DHT22;11258;52.516;13.318;2023-06-19T12:55:14;27.30;99.90
22185;DHT22;11258;52.516;13.318;2023-06-19T12:57:39;27.50;99.90
22185;DHT22;11258;52.516;13.318;2023-06-19T13:00:13;27.60;99.90
22185;DHT22;11258;52.516;13.318;2023-06-19T13:02:39;27.50;99.90
22185;DHT22;11258;52.516;13.318;2023-06-19T13:05:10;27.40;99.90
22185;DHT22;11258;52.516;13.318;2023-06-19T13:07:35;27.40;99.90
22185;DHT22;11258;52.516;13.318;2023-06-19T13:10:01;27.30;99.90
22185;DHT22;11258;52.516;13.318;2023-06-19T13:12:27;27.60;99.90
22185;DHT22;11258;52.516;13.318;2023-06-19T13:14:52;28.00;99.90
22185;DHT22;11258;52.516;13.318;2023-06-19T13:17:19;28.10;99.90
22185;DHT22;11258;52.516;13.318;2023-06-19T13:19:44;28.10;99.90
22185;DHT22;11258;52.516;13.318;2023-06-19T13:22:10;28.10;99.90
22185;DHT22;11258;52.516;13.318;2023-06-19T13:24:36;28.10;99.90
22185;DHT22;11258;52.516;13.318;2023-06-19T13:27:02;27.90;99.90
22185;DHT22;11258;52.516;13.318;2023-06-19T13:29:27;27.90;99.90
22185;DHT22;11258;52.516;13.318;2023-06-19T13:31:53;28.00;99.90
22185;DHT22;11258;52.516;13.318;2023-06-19T13:34:19;28.00;99.90
22185;DHT22;11258;52.516;13.318;2023-06-19T13:36:47;28.00;99.90
22185;DHT22;11258;52.516;13.318;2023-06-19T13:39:13;28.10;99.90
22185;DHT22;11258;52.516;13.318;2023-06-19T13:41:38;28.10;99.90
22185;DHT22;11258;52.516;13.318;2023-06-19T13:44:04;28.00;99.90
22185;DHT22;11258;52.516;13.318;2023-06-19T13:46:30;27.90;99.90
22185;DHT22;11258;52.516;13.318;2023-06-19T13:48:57;28.00;99.90
22185;DHT22;11258;52.516;13.318;2023-06-19T13:51:23;28.10;99.90
22185;DHT22;11258;52.516;13.318;2023-06-19T13:53:49;28.10;99.90
22185;DHT22;11258;52.516;13.318;2023-06-19T13:56:15;27.90;99.90
22185;DHT22;11258;52.516;13.318;2023-06-19T13:58:41;27.90;99.90
22185;DHT22;11258;52.516;13.318;2023-06-19T14:01:07;27.90;99.90
22185;DHT22;11258;52.516;13.318;2023-06-19T14:03:33;28.00;99.90
22185;DHT22;11258;52.516;13.318;2023-06-19T14:05:59;27.80;99.90
22185;DHT22;11258;52.516;13.318;2023-06-19T14:08:25;27.80;99.90
22185;DHT22;11258;52.516;13.318;2023-06-19T14:10:51;27.80;99.90
22185;DHT22;11258;52.516;13.318;2023-06-19T14:13:17;27.90;99.90
22185;DHT22;11258;52.516;13.318;2023-06-19T14:15:42;27.90;99.90
22185;DHT22;11258;52.516;13.318;2023-06-19T14:18:08;28.00;99.90
22185;DHT22;11258;52.516;13.318;2023-06-19T14:20:34;28.00;99.90
22185;DHT22;11258;52.516;13.318;2023-06-19T14:22:59;28.20;99.90
22185;DHT22;11258;52.516;13.318;2023-06-19T14:25:25;28.20;99.90
22185;DHT22;11258;52.516;13.318;2023-06-19T14:27:51;28.30;99.90
22185;DHT22;11258;52.516;13.318;2023-06-19T14:30:17;28.40;99.90
22185;DHT22;11258;52.516;13.318;2023-06-19T14:32:43;28.50;99.90
22185;DHT22;11258;52.516;13.318;2023-06-19T14:35:08;28.40;99.90
22185;DHT22;11258;52.516;13.318;2023-06-19T14:37:34;28.50;99.90
22185;DHT22;11258;52.516;13.318;2023-06-19T14:40:00;28.50;99.90
22185;DHT22;11258;52.516;13.318;2023-06-19T14:42:25;28.40;99.90
22185;DHT22;11258;52.516;13.318;2023-06-19T14:44:51;28.30;99.90
22185;DHT22;11258;52.516;13.318;2023-06-19T14:47:17;28.50;99.90
22185;DHT22;11258;52.516;13.318;2023-06-19T14:49:42;28.40;99.90
22185;DHT22;11258;52.516;13.318;2023-06-19T14:52:08;28.60;99.90
22185;DHT22;11258;52.516;13.318;2023-06-19T14:54:34;28.80;99.90
22185;DHT22;11258;52.516;13.318;2023-06-19T14:56:59;28.90;99.90
22185;DHT22;11258;52.516;13.318;2023-06-19T14:59:25;29.00;99.90
22185;DHT22;11258;52.516;13.318;2023-06-19T15:01:51;29.10;99.90
22185;DHT22;11258;52.516;13.318;2023-06-19T15:04:16;29.20;99.90
22185;DHT22;11258;52.516;13.318;2023-06-19T15:06:42;29.20;99.90
22185;DHT22;11258;52.516;13.318;2023-06-19T15:09:08;29.00;99.90
22185;DHT22;11258;52.516;13.318;2023-06-19T15:11:34;28.70;99.90
22185;DHT22;11258;52.516;13.318;2023-06-19T15:14:00;28.60;99.90